createdAt,value
2019-04-10T00:01:17.388Z,5.40
2019-04-10T00:06:24.260Z,6.43
2019-04-10T00:11:30.659Z,6.20
2019-04-10T00:16:38.554Z,6.97
2019-04-10T00:21:45.215Z,7.33
2019-04-10T00:26:53.078Z,7.63
2019-04-10T00:32:01.753Z,5.27
2019-04-10T00:37:21.320Z,5.33
2019-04-10T00:42:18.954Z,6.33
2019-04-10T00:47:26.766Z,7.70
2019-04-10T00:52:34.464Z,5.53
2019-04-10T00:57:42.473Z,5.50
2019-04-10T01:02:51.362Z,6.27
2019-04-10T01:07:58.578Z,9.73
2019-04-10T01:13:04.922Z,5.20
2019-04-10T01:18:13.102Z,3.87
2019-04-10T01:23:20.516Z,3.47
2019-04-10T01:28:27.439Z,4.17
2019-04-10T01:33:35.312Z,4.77
2019-04-10T01:38:43.775Z,4.27
2019-04-10T01:43:51.089Z,4.00
2019-04-10T01:48:58.110Z,3.97
2019-04-10T01:54:05.297Z,4.07
2019-04-10T01:59:13.852Z,3.73
2019-04-10T02:04:21.541Z,3.73
2019-04-10T02:09:29.903Z,5.07
2019-04-10T02:14:37.116Z,4.10
2019-04-10T02:19:43.860Z,3.00
2019-04-10T02:24:51.684Z,3.87
2019-04-10T02:29:58.088Z,2.90
2019-04-10T02:35:06.322Z,2.93
2019-04-10T02:40:15.084Z,3.37
2019-04-10T02:45:24.200Z,3.03
2019-04-10T02:50:33.209Z,3.63
2019-04-10T02:55:41.197Z,3.23
2019-04-10T03:00:49.354Z,3.97
2019-04-10T03:05:58.680Z,3.97
2019-04-10T03:11:10.554Z,4.73
2019-04-10T03:16:15.821Z,3.73
2019-04-10T03:21:23.963Z,3.60
2019-04-10T03:26:32.004Z,3.67
2019-04-10T03:31:40.694Z,3.20
2019-04-10T03:36:48.132Z,6.13
2019-04-10T03:41:56.797Z,5.80
2019-04-10T03:47:04.115Z,5.23
2019-04-10T03:52:10.171Z,4.13
2019-04-10T03:57:18.429Z,5.57
2019-04-10T04:02:27.417Z,5.50
2019-04-10T04:07:34.778Z,6.07
2019-04-10T04:12:40.920Z,7.80
2019-04-10T04:17:50.912Z,4.27
2019-04-10T04:22:58.651Z,7.63
2019-04-10T04:28:07.037Z,4.87
2019-04-10T04:33:15.454Z,7.43
2019-04-10T04:38:23.655Z,7.50
2019-04-10T04:43:30.596Z,8.97
2019-04-10T04:48:38.663Z,9.03
2019-04-10T04:53:45.362Z,13.17
2019-04-10T04:58:53.884Z,9.87
2019-04-10T05:04:02.390Z,10.40
2019-04-10T05:09:09.907Z,11.33
2019-04-10T05:14:17.536Z,9.67
2019-04-10T05:19:23.633Z,12.33
2019-04-10T05:24:31.993Z,11.07
2019-04-10T05:29:39.431Z,9.43
2019-04-10T05:34:46.924Z,12.17
2019-04-10T05:39:55.363Z,7.53
2019-04-10T05:45:03.126Z,5.67
2019-04-10T05:50:10.860Z,5.60
2019-04-10T05:55:17.700Z,7.67
2019-04-10T06:00:25.054Z,6.43
2019-04-10T06:05:32.768Z,8.57
2019-04-10T06:10:41.520Z,4.97
2019-04-10T06:15:48.801Z,9.03
2019-04-10T06:20:54.831Z,6.30
2019-04-10T06:26:03.604Z,6.17
2019-04-10T06:31:10.381Z,4.57
2019-04-10T06:36:17.503Z,10.50
2019-04-10T06:41:24.728Z,5.80
2019-04-10T06:46:32.761Z,5.00
2019-04-10T06:51:41.032Z,5.30
2019-04-10T06:56:50.324Z,3.87
2019-04-10T07:02:11.381Z,6.77
2019-04-10T07:07:11.289Z,5.53
2019-04-10T07:12:16.544Z,8.50
2019-04-10T07:17:25.042Z,7.03
2019-04-10T07:22:33.178Z,7.70
2019-04-10T07:27:41.784Z,6.73
2019-04-10T07:32:49.278Z,14.03
2019-04-10T07:37:58.051Z,8.33
2019-04-10T07:43:06.333Z,6.53
2019-04-10T07:48:14.106Z,6.43
2019-04-10T07:53:22.647Z,4.73
2019-04-10T07:58:29.230Z,7.47
2019-04-10T08:03:37.398Z,7.30
2019-04-10T08:08:44.878Z,5.00
2019-04-10T08:13:51.944Z,7.03
2019-04-10T08:18:59.777Z,9.63
2019-04-10T08:24:07.274Z,6.90
2019-04-10T08:29:14.555Z,5.93
2019-04-10T08:34:22.220Z,8.03
2019-04-10T08:39:37.758Z,6.87
2019-04-10T08:44:38.220Z,6.60
2019-04-10T08:49:45.987Z,7.50
2019-04-10T08:54:55.088Z,7.27
2019-04-10T09:00:02.746Z,5.70
2019-04-10T09:05:11.252Z,4.13
2019-04-10T09:10:18.560Z,7.10
2019-04-10T09:15:26.738Z,6.33
2019-04-10T09:20:34.978Z,7.70
2019-04-10T09:25:43.677Z,7.27
2019-04-10T09:30:51.403Z,5.33
2019-04-10T09:35:58.427Z,8.33
2019-04-10T09:41:07.789Z,5.30
2019-04-10T09:46:13.694Z,3.67
2019-04-10T09:51:21.365Z,3.13
2019-04-10T09:56:29.869Z,2.30
2019-04-10T10:01:37.978Z,1.70
2019-04-10T10:06:45.384Z,2.10
2019-04-10T10:11:53.481Z,1.77
2019-04-10T10:17:01.496Z,4.87
2019-04-10T10:22:09.375Z,6.07
2019-04-10T10:27:17.794Z,2.13
2019-04-10T10:32:24.704Z,2.90
2019-04-10T10:37:34.400Z,2.03
2019-04-10T10:42:43.458Z,6.87
2019-04-10T10:47:50.621Z,3.37
2019-04-10T10:52:58.356Z,4.27
2019-04-10T10:58:05.823Z,3.43
2019-04-10T11:03:12.176Z,2.60
2019-04-10T11:08:20.831Z,4.83
2019-04-10T11:13:27.542Z,6.27
2019-04-10T11:18:35.249Z,9.03
2019-04-10T11:23:43.753Z,11.10
2019-04-10T11:28:53.069Z,12.40
2019-04-10T11:34:02.204Z,12.83
2019-04-10T11:39:19.293Z,12.10
2019-04-10T11:44:20.302Z,12.70
2019-04-10T11:49:29.464Z,13.87
2019-04-10T11:54:40.962Z,13.33
2019-04-10T11:59:47.378Z,15.40
2019-04-10T12:04:57.674Z,11.67
2019-04-10T12:15:12.316Z,13.63
2019-04-10T12:20:20.694Z,12.97
2019-04-10T12:25:27.093Z,18.57
2019-04-10T12:30:33.437Z,11.17
2019-04-10T12:35:40.888Z,13.07
2019-04-10T12:40:47.982Z,9.93
2019-04-10T12:45:54.776Z,11.60
2019-04-10T12:51:03.465Z,14.67
2019-04-10T12:56:11.189Z,13.93
2019-04-10T13:01:18.079Z,16.97
2019-04-10T13:06:26.186Z,20.00
2019-04-10T13:11:34.371Z,13.80
2019-04-10T13:16:42.831Z,15.40
2019-04-10T13:21:51.591Z,19.40
2019-04-10T13:26:58.590Z,12.37
2019-04-10T13:32:07.653Z,13.40
2019-04-10T13:37:13.826Z,24.43
2019-04-10T13:42:21.579Z,16.07
2019-04-10T13:47:30.395Z,10.73
2019-04-10T13:52:40.537Z,5.30
2019-04-10T13:57:48.040Z,7.20
2019-04-10T14:02:54.859Z,11.77
2019-04-10T14:08:02.710Z,11.90
2019-04-10T14:13:09.397Z,11.77
2019-04-10T14:18:16.634Z,5.87
2019-04-10T14:23:29.617Z,9.57
2019-04-10T14:28:37.533Z,8.93
2019-04-10T14:33:47.107Z,9.40
2019-04-10T14:38:53.195Z,4.40
2019-04-10T14:43:59.558Z,7.23
2019-04-10T14:49:06.982Z,7.33
2019-04-10T14:54:15.568Z,6.50
2019-04-10T14:59:24.038Z,9.03
2019-04-10T15:04:31.812Z,8.17
2019-04-10T15:09:38.639Z,5.30
2019-04-10T15:14:46.291Z,5.97
2019-04-10T15:19:53.847Z,5.87
2019-04-10T15:25:00.128Z,5.50
2019-04-10T15:30:06.742Z,4.67
2019-04-10T15:35:14.366Z,2.93
2019-04-10T15:40:25.576Z,5.90
2019-04-10T15:45:30.546Z,2.70
2019-04-10T15:50:36.509Z,7.17
2019-04-10T15:55:47.572Z,5.27
2019-04-10T16:00:55.209Z,7.37
2019-04-10T16:06:03.973Z,4.60
2019-04-10T16:11:30.342Z,3.03
2019-04-10T16:17:10.949Z,4.83
2019-04-10T16:22:33.162Z,3.60
2019-04-10T16:27:39.584Z,1.40
2019-04-10T16:32:46.781Z,2.03
2019-04-10T16:37:54.471Z,2.23
2019-04-10T16:43:03.504Z,5.93
2019-04-10T16:48:11.588Z,6.33
2019-04-10T16:53:20.121Z,3.50
2019-04-10T16:58:27.876Z,6.53
2019-04-10T17:03:35.671Z,4.57
2019-04-10T17:08:41.914Z,2.30
2019-04-10T17:13:49.516Z,6.33
2019-04-10T17:18:57.118Z,2.73
2019-04-10T17:24:05.009Z,4.80
2019-04-10T17:29:12.813Z,8.90
2019-04-10T17:34:20.799Z,5.47
2019-04-10T17:39:27.180Z,5.17
2019-04-10T17:44:34.439Z,10.97
2019-04-10T17:49:43.410Z,4.63
2019-04-10T17:54:51.276Z,10.00
2019-04-10T17:59:59.189Z,8.73
2019-04-10T18:05:06.945Z,6.07
2019-04-10T18:10:14.856Z,5.53
2019-04-10T18:15:22.406Z,7.80
2019-04-10T18:20:30.055Z,4.13
2019-04-10T18:25:36.215Z,8.83
2019-04-10T18:30:43.922Z,3.40
2019-04-10T18:35:51.513Z,9.73
2019-04-10T18:41:02.266Z,7.70
2019-04-10T18:46:11.474Z,6.83
2019-04-10T18:51:15.965Z,5.97
2019-04-10T18:56:23.445Z,7.37
2019-04-10T19:01:49.386Z,5.13
2019-04-10T19:07:01.961Z,5.43
2019-04-10T19:12:08.532Z,8.00
2019-04-10T19:17:17.051Z,10.33
2019-04-10T19:22:24.380Z,9.33
2019-04-10T19:27:32.051Z,7.73
2019-04-10T19:32:39.119Z,10.87
2019-04-10T19:37:47.123Z,6.73
2019-04-10T19:42:54.835Z,6.57
2019-04-10T19:48:03.195Z,20.03
2019-04-10T19:53:11.046Z,19.93
2019-04-10T19:58:19.630Z,6.37
2019-04-10T20:03:27.722Z,5.07
2019-04-10T20:08:34.022Z,6.93
2019-04-10T20:13:42.993Z,7.37
2019-04-10T20:18:50.825Z,9.07
2019-04-10T20:23:58.601Z,8.80
2019-04-10T20:29:06.814Z,8.20
2019-04-10T20:34:13.660Z,8.67
2019-04-10T20:39:21.595Z,6.63
2019-04-10T20:44:29.155Z,8.33
2019-04-10T20:49:36.455Z,10.37
2019-04-10T20:54:44.791Z,10.83
2019-04-10T20:59:51.139Z,11.13
2019-04-10T21:05:03.136Z,16.43
2019-04-10T21:10:08.640Z,21.60
2019-04-10T21:15:14.943Z,9.20
2019-04-10T21:20:22.427Z,10.43
2019-04-10T21:25:29.422Z,12.83
2019-04-10T21:31:11.690Z,9.47
2019-04-10T21:36:18.707Z,8.27
2019-04-10T21:41:25.858Z,7.70
2019-04-10T21:46:34.670Z,10.83
2019-04-10T21:51:42.844Z,11.63
2019-04-10T21:56:51.396Z,5.43
2019-04-10T22:01:59.349Z,4.57
2019-04-10T22:07:23.845Z,8.13
2019-04-10T22:12:39.014Z,10.23
2019-04-10T22:17:42.472Z,5.10
2019-04-10T22:22:50.063Z,7.20
2019-04-10T22:27:58.343Z,9.17
2019-04-10T22:33:05.426Z,9.80
2019-04-10T22:38:13.126Z,11.37
2019-04-10T22:43:20.678Z,8.57
2019-04-10T22:48:26.606Z,7.93
2019-04-10T22:53:37.344Z,9.43
2019-04-10T22:58:44.258Z,8.93
2019-04-10T23:03:53.024Z,7.93
2019-04-10T23:09:00.119Z,9.73
2019-04-10T23:14:07.458Z,10.00
2019-04-10T23:19:14.806Z,8.50
2019-04-10T23:24:23.416Z,9.83
2019-04-10T23:29:30.947Z,4.67
2019-04-10T23:34:38.956Z,7.10
2019-04-10T23:39:46.152Z,4.93
2019-04-10T23:44:53.720Z,6.07
2019-04-10T23:50:01.886Z,4.27
2019-04-10T23:55:10.101Z,8.33
